createdAt,value
2023-05-22T00:00:45.998Z,60.30
2023-05-22T00:03:17.610Z,60.38
2023-05-22T00:05:49.016Z,60.52
2023-05-22T00:08:17.295Z,60.62
2023-05-22T00:10:45.652Z,60.60
2023-05-22T00:13:13.572Z,60.60
2023-05-22T00:15:41.766Z,60.73
2023-05-22T00:18:10.009Z,60.67
2023-05-22T00:20:39.559Z,60.45
2023-05-22T00:23:12.576Z,60.49
2023-05-22T00:25:42.303Z,60.33
2023-05-22T00:28:11.993Z,60.27
2023-05-22T00:30:42.988Z,59.96
2023-05-22T00:33:12.564Z,60.08
2023-05-22T00:35:40.781Z,60.16
2023-05-22T00:38:09.335Z,60.29
2023-05-22T00:40:37.767Z,60.55
2023-05-22T00:43:08.907Z,60.59
2023-05-22T00:45:37.793Z,60.93
2023-05-22T00:48:06.203Z,60.86
2023-05-22T00:50:34.204Z,61.01
2023-05-22T00:53:02.495Z,61.04
2023-05-22T00:55:31.144Z,61.02
2023-05-22T00:57:59.744Z,61.00
2023-05-22T01:00:27.962Z,61.13
2023-05-22T01:02:56.123Z,60.90
2023-05-22T01:05:27.122Z,61.24
2023-05-22T01:07:55.312Z,61.38
2023-05-22T01:10:24.075Z,61.42
2023-05-22T01:13:05.166Z,61.42
2023-05-22T01:15:41.617Z,61.24
2023-05-22T01:18:31.809Z,61.13
2023-05-22T01:21:12.476Z,61.28
2023-05-22T01:24:16.410Z,61.37
2023-05-22T01:26:56.778Z,61.21
2023-05-22T01:29:56.183Z,61.63
2023-05-22T01:32:27.066Z,61.57
2023-05-22T01:34:59.784Z,61.86
2023-05-22T01:37:28.618Z,61.74
2023-05-22T01:39:57.433Z,61.74
2023-05-22T01:42:26.178Z,61.84
2023-05-22T01:44:55.072Z,61.80
2023-05-22T01:47:23.602Z,61.79
2023-05-22T01:49:53.502Z,61.81
2023-05-22T01:52:27.923Z,61.88
2023-05-22T01:55:04.089Z,62.03
2023-05-22T01:57:57.015Z,61.99
2023-05-22T02:00:30.269Z,61.90
2023-05-22T02:03:08.419Z,62.12
2023-05-22T02:05:39.922Z,62.36
2023-05-22T02:08:09.444Z,62.37
2023-05-22T02:10:42.864Z,62.51
2023-05-22T02:13:12.746Z,62.62
2023-05-22T02:15:49.270Z,62.61
2023-05-22T02:18:18.354Z,62.73
2023-05-22T02:20:47.456Z,62.62
2023-05-22T02:23:15.785Z,62.36
2023-05-22T02:25:43.942Z,62.31
2023-05-22T02:28:12.111Z,62.43
2023-05-22T02:30:47.235Z,62.24
2023-05-22T02:33:19.431Z,62.32
2023-05-22T02:35:54.755Z,61.92
2023-05-22T02:38:23.285Z,61.84
2023-05-22T02:40:51.718Z,61.49
2023-05-22T02:43:19.755Z,61.12
2023-05-22T02:45:47.998Z,61.02
2023-05-22T02:48:17.082Z,60.47
2023-05-22T02:50:48.136Z,60.18
2023-05-22T02:53:42.708Z,59.75
2023-05-22T02:56:12.218Z,59.44
2023-05-22T02:58:40.862Z,58.93
2023-05-22T03:01:11.211Z,58.78
2023-05-22T03:03:39.401Z,58.29
2023-05-22T03:06:09.886Z,57.95
2023-05-22T03:08:41.775Z,57.56
2023-05-22T03:11:10.334Z,57.14
2023-05-22T03:13:38.530Z,56.71
2023-05-22T03:16:06.939Z,56.61
2023-05-22T03:18:43.957Z,56.17
2023-05-22T03:21:12.988Z,56.32
2023-05-22T03:23:41.652Z,55.93
2023-05-22T03:26:15.280Z,55.67
2023-05-22T03:28:44.291Z,55.31
2023-05-22T03:31:21.959Z,55.12
2023-05-22T03:34:29.254Z,54.60
2023-05-22T03:37:00.647Z,54.37
2023-05-22T03:39:31.249Z,54.16
2023-05-22T03:42:07.600Z,53.72
2023-05-22T03:44:36.614Z,53.53
2023-05-22T03:47:11.475Z,53.30
2023-05-22T03:49:45.359Z,53.13
2023-05-22T03:52:13.445Z,52.60
2023-05-22T03:54:46.480Z,52.42
2023-05-22T03:57:36.861Z,52.26
2023-05-22T04:00:35.566Z,52.18
2023-05-22T04:03:34.620Z,51.77
2023-05-22T04:06:22.775Z,51.85
2023-05-22T04:08:54.168Z,52.25
2023-05-22T04:11:22.360Z,52.49
2023-05-22T04:13:51.323Z,52.64
2023-05-22T04:16:19.383Z,52.83
2023-05-22T04:18:47.267Z,53.25
2023-05-22T04:21:15.252Z,53.23
2023-05-22T04:23:44.760Z,53.56
2023-05-22T04:26:14.243Z,53.57
2023-05-22T04:29:01.460Z,53.66
2023-05-22T04:31:30.463Z,53.41
2023-05-22T04:34:12.328Z,53.31
2023-05-22T04:36:52.018Z,53.11
2023-05-22T04:39:26.457Z,53.25
2023-05-22T04:41:55.264Z,53.50
2023-05-22T04:44:31.166Z,53.72
2023-05-22T04:47:11.378Z,54.16
2023-05-22T04:49:47.209Z,55.13
2023-05-22T04:52:15.317Z,55.94
2023-05-22T04:54:45.088Z,56.40
2023-05-22T04:57:17.501Z,56.99
2023-05-22T04:59:46.589Z,57.27
2023-05-22T05:02:15.253Z,57.74
2023-05-22T05:04:47.237Z,58.03
2023-05-22T05:07:18.936Z,58.27
2023-05-22T05:09:49.642Z,58.75
2023-05-22T05:12:17.624Z,59.07
2023-05-22T05:14:49.094Z,59.64
2023-05-22T05:17:17.629Z,60.38
2023-05-22T05:19:45.708Z,60.83
2023-05-22T05:22:13.791Z,61.53
2023-05-22T05:24:42.178Z,61.63
2023-05-22T05:27:10.797Z,61.89
2023-05-22T05:29:39.162Z,61.92
2023-05-22T05:32:15.161Z,62.14
2023-05-22T05:34:49.010Z,62.33
2023-05-22T05:37:24.142Z,62.46
2023-05-22T05:39:53.650Z,62.72
2023-05-22T05:42:21.580Z,63.11
2023-05-22T05:44:50.106Z,63.71
2023-05-22T05:47:18.933Z,63.52
2023-05-22T05:49:46.810Z,63.62
2023-05-22T05:52:16.608Z,63.99
2023-05-22T05:54:47.584Z,64.12
2023-05-22T05:57:19.747Z,64.52
2023-05-22T05:59:47.737Z,64.20
2023-05-22T06:02:34.377Z,64.55
2023-05-22T06:05:05.256Z,64.76
2023-05-22T06:07:39.978Z,64.59
2023-05-22T06:10:12.261Z,64.78
2023-05-22T06:12:53.975Z,64.71
2023-05-22T06:15:21.851Z,64.77
2023-05-22T06:17:50.515Z,65.03
2023-05-22T06:20:21.763Z,64.94
2023-05-22T06:22:49.615Z,65.01
2023-05-22T06:25:20.538Z,65.14
2023-05-22T06:27:50.035Z,65.21
2023-05-22T06:30:28.336Z,65.40
2023-05-22T06:33:01.434Z,65.62
2023-05-22T06:35:29.449Z,65.87
2023-05-22T06:37:57.592Z,65.85
2023-05-22T06:40:29.309Z,66.02
2023-05-22T06:43:03.508Z,66.11
2023-05-22T06:45:52.045Z,66.39
2023-05-22T06:49:00.139Z,66.32
2023-05-22T06:51:51.379Z,65.98
2023-05-22T06:54:24.638Z,65.68
2023-05-22T06:56:57.880Z,65.94
2023-05-22T06:59:35.638Z,66.16
2023-05-22T07:06:06.407Z,65.53
2023-05-22T07:08:35.272Z,65.48
2023-05-22T07:11:07.262Z,65.32
2023-05-22T07:13:37.656Z,64.83
2023-05-22T07:16:06.551Z,64.68
2023-05-22T07:18:35.763Z,64.30
2023-05-22T07:21:03.462Z,63.44
2023-05-22T07:23:33.354Z,62.88
2023-05-22T07:26:03.716Z,62.09
2023-05-22T07:28:36.542Z,61.55
2023-05-22T07:31:11.898Z,61.65
2023-05-22T07:33:40.937Z,62.00
2023-05-22T07:36:08.600Z,62.09
2023-05-22T07:38:46.950Z,61.79
2023-05-22T07:41:17.915Z,61.29
2023-05-22T07:43:46.038Z,60.28
2023-05-22T07:46:19.686Z,59.67
2023-05-22T07:49:11.458Z,59.29
2023-05-22T07:51:41.880Z,59.02
2023-05-22T07:54:14.586Z,58.84
2023-05-22T07:56:48.306Z,57.99
2023-05-22T07:59:19.786Z,57.67
2023-05-22T08:01:47.902Z,57.46
2023-05-22T08:04:16.404Z,57.34
2023-05-22T08:06:44.638Z,57.02
2023-05-22T08:09:12.734Z,56.52
2023-05-22T08:11:42.317Z,55.84
2023-05-22T08:14:10.408Z,55.19
2023-05-22T08:16:38.402Z,55.12
2023-05-22T08:19:08.047Z,55.23
2023-05-22T08:21:35.970Z,55.51
2023-05-22T08:24:04.129Z,54.79
2023-05-22T08:26:33.509Z,55.01
2023-05-22T08:29:01.816Z,55.48
2023-05-22T08:31:29.743Z,55.78
2023-05-22T08:34:02.857Z,55.17
2023-05-22T08:36:34.538Z,53.97
2023-05-22T08:39:10.363Z,53.49
2023-05-22T08:41:38.419Z,53.58
2023-05-22T08:44:09.282Z,53.15
2023-05-22T08:46:41.905Z,52.38
2023-05-22T08:49:10.631Z,52.41
2023-05-22T08:51:39.898Z,52.26
2023-05-22T08:54:09.437Z,51.61
2023-05-22T08:56:40.046Z,50.90
2023-05-22T08:59:14.103Z,50.77
2023-05-22T09:01:42.952Z,50.36
2023-05-22T09:04:11.877Z,49.99
2023-05-22T09:06:39.991Z,49.25
2023-05-22T09:09:07.956Z,49.63
2023-05-22T09:11:35.891Z,48.96
2023-05-22T09:14:08.909Z,49.13
2023-05-22T09:16:53.102Z,48.90
2023-05-22T09:19:21.114Z,48.72
2023-05-22T09:21:48.898Z,48.92
2023-05-22T09:24:16.761Z,48.27
2023-05-22T09:26:44.524Z,48.39
2023-05-22T09:29:12.750Z,48.11
2023-05-22T09:31:44.661Z,47.29
2023-05-22T09:34:15.976Z,47.03
2023-05-22T09:36:43.942Z,47.29
2023-05-22T09:39:11.756Z,47.04
2023-05-22T09:41:40.500Z,47.13
2023-05-22T09:44:15.773Z,46.92
2023-05-22T09:46:50.612Z,46.88
2023-05-22T09:49:18.265Z,46.75
2023-05-22T09:51:49.630Z,46.70
2023-05-22T09:54:20.329Z,46.56
2023-05-22T09:56:50.479Z,45.96
2023-05-22T09:59:22.551Z,45.89
2023-05-22T10:01:50.846Z,45.72
2023-05-22T10:04:19.339Z,45.19
2023-05-22T10:06:52.274Z,44.39
2023-05-22T10:09:23.891Z,44.15
2023-05-22T10:11:54.881Z,44.89
2023-05-22T10:14:24.055Z,44.56
2023-05-22T10:16:53.002Z,44.60
2023-05-22T10:19:27.398Z,44.58
2023-05-22T10:21:57.624Z,44.45
2023-05-22T10:24:25.933Z,44.57
2023-05-22T10:26:56.160Z,44.69
2023-05-22T10:29:41.506Z,44.85
2023-05-22T10:32:44.366Z,44.98
2023-05-22T10:35:46.577Z,45.01
2023-05-22T10:38:26.482Z,44.81
2023-05-22T10:40:55.639Z,44.37
2023-05-22T10:43:23.691Z,43.89
2023-05-22T10:46:04.500Z,43.84
2023-05-22T10:48:48.526Z,43.80
2023-05-22T10:51:21.291Z,43.32
2023-05-22T10:53:59.841Z,43.67
2023-05-22T10:56:38.614Z,43.34
2023-05-22T10:59:08.566Z,43.27
2023-05-22T11:01:38.727Z,42.99
2023-05-22T11:04:25.944Z,43.47
2023-05-22T11:07:08.782Z,43.22
2023-05-22T11:09:47.912Z,42.80
2023-05-22T11:12:28.915Z,42.76
2023-05-22T11:15:06.344Z,42.34
2023-05-22T11:17:45.280Z,41.79
2023-05-22T11:20:23.133Z,42.16
2023-05-22T11:22:59.777Z,41.72
2023-05-22T11:25:28.934Z,41.29
2023-05-22T11:27:58.598Z,41.29
2023-05-22T11:30:28.115Z,41.10
2023-05-22T11:32:58.825Z,40.46
2023-05-22T11:35:28.659Z,40.50
2023-05-22T11:37:59.076Z,40.20
2023-05-22T11:40:29.879Z,40.23
2023-05-22T11:43:01.071Z,40.30
2023-05-22T11:45:29.154Z,40.17
2023-05-22T11:47:58.604Z,40.15
2023-05-22T11:50:43.931Z,40.06
2023-05-22T11:53:12.864Z,39.95
2023-05-22T11:55:42.996Z,40.49
2023-05-22T11:58:11.125Z,40.21
2023-05-22T12:00:39.544Z,40.13
2023-05-22T12:03:07.643Z,40.29
2023-05-22T12:05:35.779Z,39.92
2023-05-22T12:08:06.935Z,39.54
2023-05-22T12:10:36.348Z,39.95
2023-05-22T12:13:04.360Z,39.73
2023-05-22T12:15:32.012Z,39.62
2023-05-22T12:18:00.294Z,39.71
2023-05-22T12:20:31.353Z,39.71
2023-05-22T12:23:00.164Z,39.77
2023-05-22T12:25:39.546Z,39.39
2023-05-22T12:28:07.717Z,39.12
2023-05-22T12:30:42.612Z,38.85
2023-05-22T12:33:15.301Z,38.64
2023-05-22T12:35:43.352Z,37.75
2023-05-22T12:38:11.475Z,36.03
2023-05-22T12:40:39.744Z,33.52
2023-05-22T12:43:08.096Z,31.60
2023-05-22T12:45:36.364Z,29.73
2023-05-22T12:48:04.639Z,28.70
2023-05-22T12:50:32.682Z,27.83
2023-05-22T12:53:02.513Z,27.04
2023-05-22T12:55:31.296Z,26.96
2023-05-22T12:57:59.634Z,26.69
2023-05-22T13:00:27.774Z,26.31
2023-05-22T13:02:56.959Z,25.71
2023-05-22T13:05:27.410Z,25.18
2023-05-22T13:07:55.277Z,24.63
2023-05-22T13:10:23.074Z,24.02
2023-05-22T13:12:51.697Z,23.63
2023-05-22T13:15:19.603Z,23.76
2023-05-22T13:17:47.504Z,23.84
2023-05-22T13:20:18.451Z,24.23
2023-05-22T13:22:46.472Z,24.05
2023-05-22T13:25:15.082Z,23.74
2023-05-22T13:27:47.817Z,23.81
2023-05-22T13:30:18.898Z,23.92
2023-05-22T13:32:47.245Z,24.11
2023-05-22T13:35:15.925Z,24.54
2023-05-22T13:37:43.848Z,24.98
2023-05-22T13:40:11.967Z,25.30
2023-05-22T13:42:43.700Z,25.68
2023-05-22T13:45:12.859Z,25.97
2023-05-22T13:47:41.127Z,25.98
2023-05-22T13:50:12.982Z,26.56
2023-05-22T13:52:41.044Z,27.73
2023-05-22T13:55:09.044Z,28.88
2023-05-22T13:57:40.786Z,29.39
2023-05-22T14:00:10.424Z,30.24
2023-05-22T14:02:38.675Z,30.94
2023-05-22T14:05:07.147Z,31.07
2023-05-22T14:07:35.237Z,31.19
2023-05-22T14:10:04.647Z,30.86
2023-05-22T14:12:34.920Z,31.33
2023-05-22T14:15:03.053Z,31.74
2023-05-22T14:17:34.625Z,31.73
2023-05-22T14:20:02.522Z,32.04
2023-05-22T14:22:48.024Z,32.71
2023-05-22T14:25:23.218Z,33.13
2023-05-22T14:27:52.809Z,33.38
2023-05-22T14:30:21.094Z,34.00
2023-05-22T14:32:49.030Z,34.22
2023-05-22T14:35:19.089Z,34.54
2023-05-22T14:37:47.072Z,34.30
2023-05-22T14:40:15.024Z,33.92
2023-05-22T14:42:42.876Z,33.06
2023-05-22T14:45:11.294Z,32.70
2023-05-22T14:47:40.904Z,32.14
2023-05-22T14:50:18.887Z,32.41
2023-05-22T14:52:50.110Z,32.69
2023-05-22T14:55:18.586Z,32.44
2023-05-22T14:57:48.185Z,32.61
2023-05-22T15:00:16.897Z,33.06
2023-05-22T15:02:45.110Z,33.51
2023-05-22T15:05:12.836Z,33.65
2023-05-22T15:07:44.639Z,33.74
2023-05-22T15:10:13.616Z,34.25
2023-05-22T15:12:41.276Z,34.35
2023-05-22T15:15:09.380Z,35.14
2023-05-22T15:17:36.934Z,35.42
2023-05-22T15:20:05.660Z,35.57
2023-05-22T15:22:33.498Z,35.94
2023-05-22T15:25:05.880Z,35.79
2023-05-22T15:27:35.357Z,35.55
2023-05-22T15:30:04.566Z,35.50
2023-05-22T15:32:37.073Z,35.60
2023-05-22T15:35:06.274Z,35.37
2023-05-22T15:37:34.400Z,35.02
2023-05-22T15:40:04.464Z,34.76
2023-05-22T15:42:35.368Z,34.80
2023-05-22T15:45:03.404Z,34.74
2023-05-22T15:47:34.770Z,34.72
2023-05-22T15:50:02.833Z,34.61
2023-05-22T15:52:32.372Z,34.68
2023-05-22T15:54:59.966Z,36.36
2023-05-22T15:57:29.143Z,38.07
2023-05-22T15:59:57.462Z,39.82
2023-05-22T16:02:25.608Z,40.95
2023-05-22T16:04:53.355Z,42.28
2023-05-22T16:07:20.999Z,42.59
2023-05-22T16:09:50.362Z,43.43
2023-05-22T16:12:18.829Z,43.57
2023-05-22T16:14:47.089Z,43.92
2023-05-22T16:17:14.759Z,43.87
2023-05-22T16:19:43.222Z,43.69
2023-05-22T16:22:10.858Z,43.49
2023-05-22T16:24:38.481Z,43.38
2023-05-22T16:27:06.649Z,43.73
2023-05-22T16:29:34.636Z,43.92
2023-05-22T16:32:02.406Z,44.15
2023-05-22T16:34:32.135Z,44.26
2023-05-22T16:37:00.894Z,44.43
2023-05-22T16:39:28.542Z,44.80
2023-05-22T16:41:56.362Z,45.19
2023-05-22T16:44:24.109Z,45.47
2023-05-22T16:46:52.114Z,45.67
2023-05-22T16:49:19.690Z,45.74
2023-05-22T16:51:47.749Z,45.74
2023-05-22T16:54:15.802Z,45.73
2023-05-22T16:56:43.778Z,45.68
2023-05-22T16:59:12.018Z,45.68
2023-05-22T17:01:39.858Z,45.91
2023-05-22T17:04:07.477Z,45.75
2023-05-22T17:06:36.097Z,45.83
2023-05-22T17:09:03.701Z,45.99
2023-05-22T17:11:31.531Z,45.89
2023-05-22T17:13:59.404Z,46.13
2023-05-22T17:16:27.168Z,46.26
2023-05-22T17:18:55.499Z,46.46
2023-05-22T17:21:24.564Z,46.66
2023-05-22T17:24:01.118Z,46.89
2023-05-22T17:26:30.071Z,46.72
2023-05-22T17:28:57.867Z,47.02
2023-05-22T17:31:25.867Z,47.09
2023-05-22T17:33:53.929Z,47.03
2023-05-22T17:36:21.983Z,47.16
2023-05-22T17:38:49.777Z,47.48
2023-05-22T17:41:17.433Z,47.65
2023-05-22T17:43:46.280Z,47.61
2023-05-22T17:46:14.242Z,47.69
2023-05-22T17:48:41.955Z,47.95
2023-05-22T17:51:10.189Z,47.89
2023-05-22T17:53:39.253Z,48.27
2023-05-22T17:56:07.544Z,48.37
2023-05-22T17:58:35.592Z,48.49
2023-05-22T18:01:03.518Z,48.68
2023-05-22T18:03:31.462Z,48.76
2023-05-22T18:05:59.896Z,49.18
2023-05-22T18:08:28.464Z,49.49
2023-05-22T18:10:57.960Z,49.79
2023-05-22T18:13:26.063Z,50.01
2023-05-22T18:15:54.379Z,50.28
2023-05-22T18:18:22.843Z,50.49
2023-05-22T18:20:50.791Z,50.83
2023-05-22T18:23:19.875Z,51.03
2023-05-22T18:25:47.798Z,51.63
2023-05-22T18:28:15.731Z,51.41
2023-05-22T18:30:47.389Z,51.74
2023-05-22T18:33:16.705Z,51.87
2023-05-22T18:35:44.488Z,52.16
2023-05-22T18:38:12.506Z,52.14
2023-05-22T18:40:40.556Z,52.37
2023-05-22T18:43:08.538Z,52.62
2023-05-22T18:45:36.540Z,52.76
2023-05-22T18:48:04.628Z,52.84
2023-05-22T18:50:32.573Z,53.12
2023-05-22T18:53:00.431Z,53.43
2023-05-22T18:55:28.370Z,53.15
2023-05-22T18:57:56.930Z,53.28
2023-05-22T19:00:24.951Z,53.50
2023-05-22T19:02:53.197Z,53.70
2023-05-22T19:05:21.249Z,53.75
2023-05-22T19:07:48.934Z,53.94
2023-05-22T19:10:16.781Z,53.86
2023-05-22T19:12:44.567Z,54.13
2023-05-22T19:15:12.451Z,54.32
2023-05-22T19:17:40.007Z,54.54
2023-05-22T19:20:08.933Z,54.76
2023-05-22T19:22:37.013Z,54.89
2023-05-22T19:25:07.788Z,55.09
2023-05-22T19:27:36.733Z,55.04
2023-05-22T19:30:07.337Z,55.46
2023-05-22T19:32:35.387Z,55.41
2023-05-22T19:35:03.344Z,55.75
2023-05-22T19:37:32.577Z,55.83
2023-05-22T19:40:00.286Z,55.84
2023-05-22T19:42:28.260Z,55.97
2023-05-22T19:44:56.327Z,55.91
2023-05-22T19:47:30.809Z,56.12
2023-05-22T19:49:58.936Z,56.15
2023-05-22T19:52:26.910Z,56.42
2023-05-22T19:54:54.838Z,56.47
2023-05-22T19:57:22.678Z,56.42
2023-05-22T19:59:50.821Z,56.36
2023-05-22T20:02:18.563Z,56.46
2023-05-22T20:04:49.600Z,56.73
2023-05-22T20:07:17.342Z,56.55
2023-05-22T20:09:45.432Z,56.61
2023-05-22T20:12:12.935Z,56.60
2023-05-22T20:14:40.692Z,56.93
2023-05-22T20:17:08.277Z,56.90
2023-05-22T20:19:35.971Z,56.99
2023-05-22T20:22:05.633Z,57.05
2023-05-22T20:24:35.618Z,57.11
2023-05-22T20:27:05.295Z,57.13
2023-05-22T20:29:33.514Z,57.17
2023-05-22T20:32:01.328Z,57.20
2023-05-22T20:34:29.207Z,57.00
2023-05-22T20:36:58.482Z,56.99
2023-05-22T20:39:26.954Z,57.04
2023-05-22T20:41:54.823Z,57.15
2023-05-22T20:44:24.737Z,57.03
2023-05-22T20:46:55.918Z,57.01
2023-05-22T20:49:23.656Z,57.12
2023-05-22T20:51:51.951Z,57.01
2023-05-22T20:54:19.527Z,56.98
2023-05-22T20:56:47.565Z,56.94
2023-05-22T20:59:16.391Z,56.81
2023-05-22T21:01:45.013Z,56.75
2023-05-22T21:04:13.248Z,56.67
2023-05-22T21:06:41.390Z,56.59
2023-05-22T21:09:09.536Z,56.42
2023-05-22T21:11:37.316Z,56.34
2023-05-22T21:14:05.193Z,56.37
2023-05-22T21:16:33.218Z,56.20
2023-05-22T21:19:01.226Z,56.26
2023-05-22T21:21:29.308Z,56.12
2023-05-22T21:23:57.129Z,56.32
2023-05-22T21:26:24.974Z,56.47
2023-05-22T21:28:52.774Z,56.20
2023-05-22T21:31:20.707Z,56.13
2023-05-22T21:33:48.272Z,56.36
2023-05-22T21:36:16.313Z,56.44
2023-05-22T21:38:44.527Z,56.33
2023-05-22T21:41:12.778Z,56.51
2023-05-22T21:43:40.477Z,56.50
2023-05-22T21:46:08.746Z,56.61
2023-05-22T21:48:36.317Z,56.60
2023-05-22T21:51:04.213Z,56.89
2023-05-22T21:53:32.060Z,57.01
2023-05-22T21:56:00.039Z,57.00
2023-05-22T21:58:27.821Z,57.22
2023-05-22T22:00:55.689Z,57.50
2023-05-22T22:03:23.347Z,57.50
2023-05-22T22:05:51.422Z,57.61
2023-05-22T22:08:19.206Z,57.77
2023-05-22T22:10:47.159Z,57.79
2023-05-22T22:13:15.134Z,58.06
2023-05-22T22:15:42.756Z,58.06
2023-05-22T22:18:15.164Z,58.29
2023-05-22T22:20:45.264Z,58.42
2023-05-22T22:23:13.393Z,58.59
2023-05-22T22:25:41.685Z,58.63
2023-05-22T22:28:09.501Z,58.79
2023-05-22T22:30:37.145Z,59.17
2023-05-22T22:33:05.632Z,59.26
2023-05-22T22:35:33.858Z,59.60
2023-05-22T22:38:01.816Z,59.58
2023-05-22T22:40:29.645Z,59.74
2023-05-22T22:42:57.907Z,59.90
2023-05-22T22:45:25.738Z,60.05
2023-05-22T22:47:56.896Z,60.32
2023-05-22T22:50:24.613Z,60.35
2023-05-22T22:52:52.355Z,60.44
2023-05-22T22:55:20.756Z,60.68
2023-05-22T22:57:50.211Z,60.81
2023-05-22T23:00:19.367Z,60.93
2023-05-22T23:02:47.347Z,60.95
2023-05-22T23:05:20.589Z,61.06
2023-05-22T23:07:49.243Z,61.26
2023-05-22T23:10:17.523Z,61.30
2023-05-22T23:12:48.538Z,61.19
2023-05-22T23:15:16.921Z,61.30
2023-05-22T23:17:44.823Z,61.29
2023-05-22T23:20:12.677Z,61.29
2023-05-22T23:22:40.712Z,61.42
2023-05-22T23:25:09.271Z,61.51
2023-05-22T23:27:37.842Z,61.82
2023-05-22T23:30:08.775Z,62.03
2023-05-22T23:32:36.994Z,62.17
2023-05-22T23:35:05.847Z,62.26
2023-05-22T23:37:33.819Z,62.31
2023-05-22T23:40:01.569Z,62.56
2023-05-22T23:42:32.465Z,62.70
2023-05-22T23:45:00.167Z,62.59
2023-05-22T23:47:28.536Z,63.10
2023-05-22T23:49:57.228Z,63.10
2023-05-22T23:52:24.802Z,63.49
2023-05-22T23:54:52.824Z,63.55
2023-05-22T23:57:21.044Z,63.76
2023-05-22T23:59:48.808Z,63.84
